Time;durP1;ratioP1;P1;durP2;ratioP2;P2;SDS_P1;SDS_P2;PMS_P1;PMS_P2;Temp;Humidity;BMP_temperature;BMP_pressure;BME280_temperature;BME280_humidity;BME280_pressure;Samples;Min_cycle;Max_cycle;Signal;HPM_P1;HPM_P2
2023/12/15 00:00:42;;;;;;;1.93;1.50;;;;;;;-143.21;89.84;73016.22;5038627;28;20195;-84
2023/12/15 00:03:09;;;;;;;1.93;1.50;;;;;;;-143.21;90.16;73012.25;5033896;28;20638;-81
2023/12/15 00:05:36;;;;;;;1.30;1.20;;;;;;;-143.21;90.34;73010.28;5031984;28;20237;-81
2023/12/15 00:08:02;;;;;;;1.87;1.60;;;;;;;-143.21;90.32;73004.31;5032146;28;20202;-82
2023/12/15 00:10:31;;;;;;;1.70;1.50;;;;;;;-143.21;90.58;72998.38;5030144;28;20199;-83
2023/12/15 00:12:58;;;;;;;1.83;1.60;;;;;;;-143.21;90.27;72996.38;5035463;28;20312;-82
2023/12/15 00:15:24;;;;;;;1.90;1.67;;;;;;;-143.21;90.08;73004.31;5035533;28;20497;-83
2023/12/15 00:17:53;;;;;;;1.67;1.53;;;;;;;-143.21;90.43;73010.28;5029317;28;20194;-83
2023/12/15 00:20:19;;;;;;;1.97;1.70;;;;;;;-143.21;90.34;73014.25;5036989;28;20225;-82
2023/12/15 00:22:46;;;;;;;2.03;1.70;;;;;;;-143.21;90.25;73006.31;5038803;28;20209;-82
2023/12/15 00:25:13;;;;;;;2.50;1.93;;;;;;;-143.21;90.16;73014.25;5033756;28;20249;-79
2023/12/15 00:27:41;;;;;;;2.17;1.77;;;;;;;-143.21;90.33;73032.09;5030059;28;20210;-81
2023/12/15 00:30:08;;;;;;;2.63;2.00;;;;;;;-143.21;89.68;73026.16;5042081;28;20696;-84
2023/12/15 00:32:35;;;;;;;1.77;1.57;;;;;;;-143.21;89.68;73028.13;5036959;28;20202;-85
2023/12/15 00:35:04;;;;;;;2.83;2.20;;;;;;;-143.21;89.94;73026.16;5041424;28;20199;-86
2023/12/15 00:37:31;;;;;;;4.13;2.27;;;;;;;-143.21;89.92;73024.16;5032267;28;20202;-80
2023/12/15 00:39:57;;;;;;;6.17;2.63;;;;;;;-143.21;89.71;73044.00;5036834;28;20214;-80
2023/12/15 00:42:24;;;;;;;4.07;2.70;;;;;;;-143.21;89.20;73071.75;5029088;28;20229;-80
2023/12/15 00:44:51;;;;;;;4.13;3.33;;;;;;;-143.21;90.92;73097.56;5030033;28;20313;-81
2023/12/15 00:47:18;;;;;;;12.03;8.20;;;;;;;-143.21;91.97;73089.63;5034641;28;20210;-81
2023/12/15 00:49:45;;;;;;;20.73;14.93;;;;;;;-143.21;92.38;73081.69;5039679;28;20210;-81
2023/12/15 00:52:13;;;;;;;39.97;28.40;;;;;;;-143.21;92.29;73067.78;5026477;28;20211;-81
2023/12/15 00:54:40;;;;;;;51.73;35.13;;;;;;;-143.21;91.94;73057.88;5030916;28;20208;-81
2023/12/15 00:57:07;;;;;;;40.03;28.13;;;;;;;-143.21;91.26;73077.72;5038700;28;20316;-81
2023/12/15 00:59:33;;;;;;;49.67;32.03;;;;;;;-143.21;91.28;73087.63;5027324;28;20207;-80
2023/12/15 01:02:00;;;;;;;47.83;31.53;;;;;;;-143.21;92.26;73091.59;5023311;28;20201;-80
2023/12/15 01:04:27;;;;;;;40.70;29.67;;;;;;;-143.21;92.92;73091.59;5020203;28;20273;-80
2023/12/15 01:06:54;;;;;;;34.27;26.10;;;;;;;-143.21;93.04;73085.66;5030270;28;20211;-80
2023/12/15 01:09:22;;;;;;;28.73;20.27;;;;;;;-143.21;92.71;73067.78;5027895;28;20268;-80
2023/12/15 01:11:49;;;;;;;33.60;25.63;;;;;;;-143.21;93.04;73057.88;5023313;28;20226;-80
2023/12/15 01:14:16;;;;;;;29.60;20.70;;;;;;;-143.21;92.26;73055.91;5025455;28;20244;-80
2023/12/15 01:16:47;;;;;;;29.07;22.00;;;;;;;-143.21;91.60;73040.03;5028803;28;20365;-80
2023/12/15 01:19:15;;;;;;;25.93;19.53;;;;;;;-143.21;91.18;73040.03;5029486;28;20203;-79
2023/12/15 01:21:42;;;;;;;47.30;33.90;;;;;;;-143.21;91.38;73034.06;5028839;28;20234;-80
2023/12/15 01:24:08;;;;;;;41.33;30.07;;;;;;;-143.21;91.18;73028.13;5029137;28;20214;-80
2023/12/15 01:26:37;;;;;;;28.07;19.67;;;;;;;-143.21;91.12;73024.16;5029150;28;20223;-80
2023/12/15 01:29:03;;;;;;;22.97;17.83;;;;;;;-143.21;90.43;73026.16;5028995;28;20290;-81
2023/12/15 01:31:31;;;;;;;27.83;20.37;;;;;;;-143.21;90.26;73026.16;5028810;28;20206;-78
2023/12/15 01:33:58;;;;;;;23.83;15.30;;;;;;;-143.21;90.00;73020.19;5028132;28;20226;-81
2023/12/15 01:36:23;;;;;;;21.03;16.07;;;;;;;-143.21;90.13;73034.06;5028572;28;20658;-80
2023/12/15 01:38:50;;;;;;;13.83;10.47;;;;;;;-143.21;90.21;73081.69;5028570;28;20214;-80
2023/12/15 01:41:17;;;;;;;6.93;5.20;;;;;;;-143.21;91.49;73115.41;5028894;28;20661;-81
2023/12/15 01:43:45;;;;;;;6.17;4.80;;;;;;;-143.21;92.53;73105.47;5028796;28;20554;-80
2023/12/15 01:46:12;;;;;;;3.67;3.10;;;;;;;-143.21;92.85;73093.59;5028904;28;20225;-80
2023/12/15 01:48:39;;;;;;;3.50;3.00;;;;;;;-143.21;92.62;73087.63;5028629;28;20582;-80
2023/12/15 01:51:07;;;;;;;5.63;3.47;;;;;;;-143.21;92.51;73065.81;5028701;28;20206;-79
2023/12/15 01:53:33;;;;;;;4.33;3.40;;;;;;;-143.21;92.26;73069.78;5025483;28;20219;-80
2023/12/15 01:56:01;;;;;;;3.87;2.80;;;;;;;-143.21;91.76;73067.78;5028332;28;20214;-79
2023/12/15 01:58:27;;;;;;;4.17;2.90;;;;;;;-143.21;91.52;73067.78;5028112;28;20215;-80
2023/12/15 02:00:55;;;;;;;4.33;3.00;;;;;;;-143.21;91.80;73059.88;5028295;28;20215;-81
2023/12/15 02:03:22;;;;;;;4.80;3.20;;;;;;;-143.21;91.82;73061.84;5032760;28;20210;-80
2023/12/15 02:05:49;;;;;;;4.40;3.07;;;;;;;-143.21;91.68;73059.88;5032069;28;20222;-80
2023/12/15 02:08:16;;;;;;;3.50;2.70;;;;;;;-143.21;91.72;73053.91;5033207;28;20325;-81
2023/12/15 02:10:43;;;;;;;3.43;2.33;;;;;;;-143.21;91.25;73047.97;5032949;28;20649;-81
2023/12/15 02:13:10;;;;;;;3.50;2.63;;;;;;;-143.21;91.22;73061.84;5032301;28;20253;-81
2023/12/15 02:15:37;;;;;;;5.07;2.57;;;;;;;-143.21;91.69;73059.88;5032532;28;20198;-81
2023/12/15 02:18:05;;;;;;;4.17;2.80;;;;;;;-143.21;91.61;73059.88;5032901;28;20203;-82
2023/12/15 02:20:32;;;;;;;6.33;3.00;;;;;;;-143.21;92.05;73077.72;5032617;28;20206;-81
2023/12/15 02:23:00;;;;;;;3.20;2.47;;;;;;;-143.21;91.68;73097.56;5032368;28;20309;-81
2023/12/15 02:25:27;;;;;;;3.13;2.33;;;;;;;-143.21;92.90;73131.28;5031764;28;20908;-82
2023/12/15 02:27:54;;;;;;;2.60;2.33;;;;;;;-143.21;93.99;73129.28;5032082;28;20582;-81
2023/12/15 02:30:21;;;;;;;3.43;2.53;;;;;;;-143.21;94.99;73125.31;5033341;28;20271;-82
2023/12/15 02:32:48;;;;;;;3.93;2.77;;;;;;;-143.21;95.04;73111.44;5032825;28;20248;-82
2023/12/15 02:35:16;;;;;;;3.07;2.50;;;;;;;-143.21;94.77;73117.38;5032438;28;20214;-81
2023/12/15 02:37:43;;;;;;;4.43;2.40;;;;;;;-143.21;94.43;73109.44;5032714;28;20293;-81
2023/12/15 02:40:12;;;;;;;3.53;2.67;;;;;;;-143.21;94.14;73105.47;5032475;28;20279;-82
2023/12/15 02:42:39;;;;;;;3.93;3.00;;;;;;;-143.21;93.59;73107.47;5030444;28;20211;-82
2023/12/15 02:45:07;;;;;;;3.63;2.83;;;;;;;-143.21;93.41;73101.53;5033507;28;20203;-81
2023/12/15 02:47:34;;;;;;;4.17;3.00;;;;;;;-143.21;93.24;73099.53;5029960;28;20206;-82
2023/12/15 02:50:01;;;;;;;5.77;3.77;;;;;;;-143.21;92.70;73093.59;5032882;28;20214;-82
2023/12/15 02:52:28;;;;;;;5.57;3.73;;;;;;;-143.21;92.37;73095.56;5032526;28;20214;-82
2023/12/15 02:54:55;;;;;;;6.90;4.23;;;;;;;-143.21;92.67;73101.53;5032271;28;20297;-81
2023/12/15 02:57:23;;;;;;;7.87;3.77;;;;;;;-143.21;92.42;73103.50;5032260;28;20203;-82
2023/12/15 02:59:50;;;;;;;6.80;4.90;;;;;;;-143.21;92.74;73107.47;5032315;28;20206;-81
2023/12/15 03:02:17;;;;;;;7.93;4.83;;;;;;;-143.21;92.71;73107.47;5032145;28;20198;-82
2023/12/15 03:04:43;;;;;;;9.50;6.23;;;;;;;-143.21;92.62;73115.41;5030594;28;20202;-81
2023/12/15 03:07:10;;;;;;;9.37;5.80;;;;;;;-143.21;92.78;73131.28;5032366;28;20222;-81
2023/12/15 03:09:37;;;;;;;8.37;5.67;;;;;;;-143.21;93.02;73165.00;5032389;28;20234;-81
2023/12/15 03:12:04;;;;;;;8.60;5.30;;;;;;;-143.21;93.85;73180.88;5032115;28;20207;-82
2023/12/15 03:14:32;;;;;;;8.30;5.67;;;;;;;-143.21;95.11;73174.91;5032301;28;20268;-82
2023/12/15 03:17:00;;;;;;;9.63;5.90;;;;;;;-143.21;95.78;73166.97;5031970;28;20207;-81
2023/12/15 03:19:28;;;;;;;9.53;6.37;;;;;;;-143.21;95.26;73159.03;5031821;28;20218;-81
2023/12/15 03:21:55;;;;;;;8.87;6.27;;;;;;;-143.21;94.88;73145.16;5030780;28;20312;-80
2023/12/15 03:24:21;;;;;;;9.37;6.40;;;;;;;-143.21;93.94;73131.28;5031175;28;20203;-79
2023/12/15 03:26:48;;;;;;;9.80;7.07;;;;;;;-143.21;93.97;73133.25;5031086;28;20230;-79
2023/12/15 03:29:15;;;;;;;12.07;8.13;;;;;;;-143.21;93.03;73127.31;5031127;28;20203;-80
2023/12/15 03:31:43;;;;;;;13.40;8.57;;;;;;;-143.21;93.11;73129.28;5030131;28;20244;-79
2023/12/15 03:34:10;;;;;;;13.47;8.40;;;;;;;-143.21;93.22;73129.28;5030907;28;20620;-80
2023/12/15 03:36:38;;;;;;;14.63;8.77;;;;;;;-143.21;92.26;73133.25;5031211;28;20206;-80
2023/12/15 03:39:05;;;;;;;15.23;9.77;;;;;;;-143.21;92.30;73135.25;5028038;28;20194;-80
2023/12/15 03:41:33;;;;;;;15.90;9.83;;;;;;;-143.21;92.30;73131.28;5031233;28;20205;-83
2023/12/15 03:43:59;;;;;;;13.63;9.60;;;;;;;-143.21;91.81;73127.31;5030966;28;20927;-82
2023/12/15 03:46:26;;;;;;;14.73;9.40;;;;;;;-143.21;91.67;73127.31;5027992;28;20226;-82
2023/12/15 03:48:54;;;;;;;13.83;9.90;;;;;;;-143.21;91.59;73133.25;5031863;28;20210;-82
2023/12/15 03:51:21;;;;;;;13.33;9.67;;;;;;;-143.21;91.87;73129.28;5030790;28;20268;-83
2023/12/15 03:53:48;;;;;;;13.83;10.23;;;;;;;-143.21;91.45;73131.28;5031032;28;20650;-83
2023/12/15 03:56:24;;;;;;;15.87;11.13;;;;;;;-143.21;91.62;73145.16;5031811;28;20628;-83
2023/12/15 03:58:51;;;;;;;13.33;9.00;;;;;;;-143.21;90.71;73174.91;5030645;28;20669;-83
2023/12/15 04:01:18;;;;;;;16.77;10.37;;;;;;;-143.21;92.11;73204.66;5025640;28;20210;-82
2023/12/15 04:03:45;;;;;;;18.13;11.27;;;;;;;-143.21;93.58;73196.72;5030512;28;20697;-81
2023/12/15 04:06:13;;;;;;;15.73;10.73;;;;;;;-143.21;93.52;73188.78;5029679;28;20222;-81
2023/12/15 04:08:40;;;;;;;22.27;12.10;;;;;;;-143.21;93.47;73170.94;5029575;28;20205;-81
2023/12/15 04:11:07;;;;;;;16.97;11.33;;;;;;;-143.21;93.08;73165.00;5030172;28;20195;-81
2023/12/15 04:13:34;;;;;;;18.83;10.90;;;;;;;-143.21;92.32;73161.03;5030821;28;20326;-82
2023/12/15 04:16:01;;;;;;;17.30;12.00;;;;;;;-143.21;92.03;73155.06;5030764;28;20210;-81
2023/12/15 04:18:28;;;;;;;18.20;11.67;;;;;;;-143.21;91.66;73151.09;5030616;28;20693;-80
2023/12/15 04:20:54;;;;;;;21.30;12.53;;;;;;;-143.21;91.47;73151.09;5029903;28;20218;-81
2023/12/15 04:23:22;;;;;;;22.50;14.07;;;;;;;-143.21;91.70;73157.06;5030598;28;20210;-81
2023/12/15 04:25:49;;;;;;;19.97;12.40;;;;;;;-143.21;91.50;73157.06;5029979;28;20206;-80
2023/12/15 04:28:16;;;;;;;18.17;11.50;;;;;;;-143.21;91.21;73153.09;5030546;28;20673;-81
2023/12/15 04:30:43;;;;;;;19.50;12.80;;;;;;;-143.21;91.11;73159.03;5030573;28;20206;-81
2023/12/15 04:33:10;;;;;;;21.97;14.33;;;;;;;-143.21;91.24;73155.06;5030120;28;20202;-81
2023/12/15 04:35:36;;;;;;;18.30;12.63;;;;;;;-143.21;91.30;73159.03;5028266;28;20306;-81
2023/12/15 04:38:04;;;;;;;21.43;13.27;;;;;;;-143.21;91.56;73157.06;5030502;28;20260;-82
2023/12/15 04:40:32;;;;;;;20.33;12.93;;;;;;;-143.21;91.21;73157.06;5030281;28;20661;-81
2023/12/15 04:42:59;;;;;;;19.47;13.37;;;;;;;-143.21;91.58;73155.06;5030696;28;20329;-81
2023/12/15 04:45:26;;;;;;;22.10;15.03;;;;;;;-143.21;91.34;73190.78;5026342;28;20218;-80
2023/12/15 04:47:53;;;;;;;23.17;13.77;;;;;;;-143.21;91.24;73202.69;5029871;28;20230;-81
2023/12/15 04:50:20;;;;;;;22.50;14.87;;;;;;;-143.21;92.73;73224.50;5030195;28;20288;-81
2023/12/15 04:52:47;;;;;;;19.20;12.33;;;;;;;-143.21;93.39;73220.53;5030017;28;20301;-81
2023/12/15 04:55:14;;;;;;;20.67;12.03;;;;;;;-143.21;93.36;73224.50;5030175;28;20198;-81
2023/12/15 04:57:42;;;;;;;20.03;12.00;;;;;;;-143.21;93.43;73222.53;5029329;28;20203;-81
2023/12/15 05:00:10;;;;;;;17.30;11.60;;;;;;;-143.21;93.36;73208.63;5029492;28;20218;-80
2023/12/15 05:02:36;;;;;;;17.10;11.53;;;;;;;-143.21;92.81;73202.69;5029450;28;20199;-82
2023/12/15 05:05:04;;;;;;;19.07;11.90;;;;;;;-143.21;92.94;73204.66;5029243;28;20206;-82
2023/12/15 05:07:30;;;;;;;18.73;11.40;;;;;;;-143.21;92.21;73200.69;5029975;28;20257;-82
2023/12/15 05:09:57;;;;;;;17.30;11.77;;;;;;;-143.21;91.84;73194.75;5029624;28;20666;-82
2023/12/15 05:12:24;;;;;;;16.73;10.93;;;;;;;-143.21;91.66;73188.78;5030299;28;20563;-82
2023/12/15 05:14:52;;;;;;;12.40;9.27;;;;;;;-143.21;90.70;73190.78;5030112;28;20720;-81
2023/12/15 05:17:19;;;;;;;16.10;9.50;;;;;;;-143.21;91.09;73220.53;5027115;28;20209;-77
2023/12/15 05:19:45;;;;;;;14.67;9.80;;;;;;;-143.21;91.73;73238.38;5019809;28;20202;-78
2023/12/15 05:22:12;;;;;;;14.30;9.87;;;;;;;-143.21;92.39;73252.28;5026712;28;20209;-77
2023/12/15 05:24:39;;;;;;;18.17;10.53;;;;;;;-143.21;91.92;73252.28;5024469;28;20206;-78
2023/12/15 05:27:20;;;;;;;16.53;10.63;;;;;;;-143.21;91.71;73242.34;5024652;28;20223;-77
2023/12/15 05:29:47;;;;;;;18.87;9.73;;;;;;;-143.21;90.52;73248.31;5020485;28;20194;-78
2023/12/15 05:32:15;;;;;;;12.60;8.23;;;;;;;-143.21;91.08;73264.19;5024310;28;20198;-78
2023/12/15 05:34:42;;;;;;;16.00;9.47;;;;;;;-143.21;90.66;73266.16;5017739;28;20215;-78
2023/12/15 05:37:09;;;;;;;15.23;9.07;;;;;;;-143.21;91.16;73270.13;5017902;28;20700;-77
2023/12/15 05:39:36;;;;;;;14.17;8.90;;;;;;;-143.21;90.18;73276.06;5023397;28;20664;-78
2023/12/15 05:42:03;;;;;;;14.37;9.17;;;;;;;-143.21;90.28;73287.97;5022969;28;20700;-78
2023/12/15 05:44:29;;;;;;;15.37;9.27;;;;;;;-143.21;91.45;73309.81;5022489;28;20209;-78
2023/12/15 05:46:56;;;;;;;22.37;11.80;;;;;;;-143.21;92.22;73299.88;5020543;28;21861;-78
2023/12/15 05:49:24;;;;;;;16.93;9.80;;;;;;;-143.21;92.48;73307.81;5025331;28;20191;-78
2023/12/15 05:51:51;;;;;;;24.23;12.27;;;;;;;-143.21;92.17;73313.78;5023199;28;20212;-83
2023/12/15 05:54:18;;;;;;;26.03;12.37;;;;;;;-143.21;92.88;73315.75;5029413;28;20249;-86
2023/12/15 05:56:45;;;;;;;22.53;12.13;;;;;;;-143.21;92.88;73321.72;5025040;28;20577;-78
2023/12/15 05:59:12;;;;;;;22.40;12.57;;;;;;;-143.21;92.73;73317.75;5025654;28;20632;-80
2023/12/15 06:01:38;;;;;;;23.10;12.10;;;;;;;-143.21;92.73;73309.81;5025340;28;20587;-77
2023/12/15 06:04:05;;;;;;;19.47;11.37;;;;;;;-143.21;92.45;73311.78;5027401;28;20229;-79
2023/12/15 06:06:33;;;;;;;14.17;8.97;;;;;;;-143.21;91.37;73307.81;5027970;28;20599;-79
2023/12/15 06:09:00;;;;;;;13.83;9.00;;;;;;;-143.21;91.05;73297.91;5028284;28;20217;-79
2023/12/15 06:11:27;;;;;;;15.93;10.67;;;;;;;-143.21;90.76;73301.88;5028016;28;20226;-79
2023/12/15 06:13:54;;;;;;;19.53;11.63;;;;;;;-143.21;91.64;73317.75;5027321;28;20250;-79
2023/12/15 06:16:21;;;;;;;20.40;12.20;;;;;;;-143.21;91.86;73305.84;5028115;28;20789;-79
2023/12/15 06:18:48;;;;;;;15.23;10.43;;;;;;;-143.21;91.60;73305.84;5028731;28;20206;-79
2023/12/15 06:21:22;;;;;;;14.27;9.83;;;;;;;-143.21;91.30;73325.69;5028298;28;20657;-79
2023/12/15 06:23:50;;;;;;;17.17;11.20;;;;;;;-143.21;91.82;73325.69;5027957;28;20217;-77
2023/12/15 06:26:19;;;;;;;15.47;10.40;;;;;;;-143.21;92.39;73323.69;5028045;28;20210;-77
2023/12/15 06:28:46;;;;;;;17.60;11.10;;;;;;;-143.21;92.65;73333.59;5027547;28;20743;-78
2023/12/15 06:31:12;;;;;;;16.73;11.17;;;;;;;-143.21;93.10;73337.56;5027511;28;20202;-78
2023/12/15 06:33:39;;;;;;;18.17;10.77;;;;;;;-143.21;92.52;73347.50;5027545;28;20301;-78
2023/12/15 06:36:07;;;;;;;18.83;11.73;;;;;;;-143.21;92.31;73357.41;5024657;28;20220;-78
2023/12/15 06:38:35;;;;;;;19.47;11.80;;;;;;;-143.21;94.15;73367.34;5028306;28;20202;-78
2023/12/15 06:41:04;;;;;;;23.70;13.50;;;;;;;-143.21;96.14;73359.41;5027748;28;20202;-78
2023/12/15 06:43:31;;;;;;;25.50;14.93;;;;;;;-143.21;95.99;73351.47;5028182;28;20590;-78
2023/12/15 06:45:57;;;;;;;28.93;16.10;;;;;;;-143.21;95.99;73365.34;5028181;28;20604;-83
2023/12/15 06:48:25;;;;;;;26.87;14.67;;;;;;;-143.21;96.25;73375.25;5030420;28;20249;-78
2023/12/15 06:50:51;;;;;;;32.13;16.70;;;;;;;-143.21;95.44;73363.38;5031393;28;20228;-79
2023/12/15 06:53:18;;;;;;;32.60;17.30;;;;;;;-143.21;96.28;73369.31;5032043;28;20601;-79
2023/12/15 06:55:45;;;;;;;28.93;14.93;;;;;;;-143.21;95.95;73355.44;5031882;28;20206;-78
2023/12/15 06:58:13;;;;;;;27.47;14.43;;;;;;;-143.21;95.27;73351.47;5031658;28;20293;-79
2023/12/15 07:00:40;;;;;;;24.57;14.43;;;;;;;-143.21;94.76;73349.47;5027516;28;20217;-79
2023/12/15 07:03:07;;;;;;;22.13;13.87;;;;;;;-143.21;94.50;73353.44;5028686;28;20217;-79
2023/12/15 07:05:34;;;;;;;30.10;17.17;;;;;;;-143.21;94.88;73375.25;5027892;28;20628;-78
2023/12/15 07:08:01;;;;;;;27.47;15.33;;;;;;;-143.21;95.36;73393.13;5030687;28;20242;-78
2023/12/15 07:10:28;;;;;;;25.80;15.63;;;;;;;-143.21;96.59;73412.97;5030452;28;20214;-79
2023/12/15 07:12:55;;;;;;;27.40;16.63;;;;;;;-143.21;97.17;73403.03;5030955;28;20759;-79
2023/12/15 07:15:25;;;;;;;24.03;15.63;;;;;;;-143.21;96.65;73393.13;5030875;28;20202;-78
2023/12/15 07:17:52;;;;;;;31.03;18.43;;;;;;;-143.21;96.68;73383.19;5030610;28;20210;-79
2023/12/15 07:20:18;;;;;;;31.50;18.33;;;;;;;-143.21;96.67;73383.19;5030900;28;20206;-81
2023/12/15 07:22:45;;;;;;;30.27;17.50;;;;;;;-143.21;96.77;73387.16;5030721;28;20243;-79
2023/12/15 07:25:12;;;;;;;29.97;15.10;;;;;;;-143.21;96.85;73395.09;5030599;28;20206;-80
2023/12/15 07:27:39;;;;;;;25.47;15.27;;;;;;;-143.21;96.59;73395.09;5030664;28;20225;-79
2023/12/15 07:30:07;;;;;;;22.53;14.40;;;;;;;-143.21;97.02;73405.03;5027121;28;20205;-80
2023/12/15 07:32:35;;;;;;;27.10;16.20;;;;;;;-143.21;97.23;73410.97;5027797;28;20202;-80
2023/12/15 07:35:03;;;;;;;32.00;17.03;;;;;;;-143.21;97.58;73405.03;5030638;28;20210;-79
2023/12/15 07:37:30;;;;;;;24.90;16.37;;;;;;;-143.21;97.36;73414.94;5031080;28;20243;-79
2023/12/15 07:39:57;;;;;;;29.17;16.53;;;;;;;-143.21;97.50;73430.81;5030286;28;20210;-79
2023/12/15 07:42:24;;;;;;;25.23;15.63;;;;;;;-143.21;97.95;73416.94;5030310;28;20225;-86
2023/12/15 07:44:50;;;;;;;24.33;14.87;;;;;;;-143.21;97.26;73405.03;5030092;28;20202;-77
2023/12/15 07:47:17;;;;;;;24.87;15.57;;;;;;;-143.21;97.21;73418.91;5030368;28;20586;-78
2023/12/15 07:49:45;;;;;;;25.70;15.73;;;;;;;-143.21;97.07;73410.97;5029827;28;20194;-76
2023/12/15 07:52:12;;;;;;;25.77;16.07;;;;;;;-143.21;96.84;73414.94;5030107;28;20581;-78
2023/12/15 07:54:39;;;;;;;33.13;20.00;;;;;;;-143.21;96.92;73412.97;5030305;28;20574;-78
2023/12/15 07:57:06;;;;;;;34.67;20.77;;;;;;;-143.21;96.92;73412.97;5027596;28;20229;-77
2023/12/15 07:59:35;;;;;;;32.43;19.20;;;;;;;-143.21;97.29;73426.84;5029303;28;20205;-78
2023/12/15 08:02:03;;;;;;;34.10;20.20;;;;;;;-143.21;96.79;73420.91;5029715;28;20207;-77
2023/12/15 08:04:29;;;;;;;28.13;18.27;;;;;;;-143.21;96.54;73414.94;5029502;28;20214;-76
2023/12/15 08:06:57;;;;;;;31.20;18.87;;;;;;;-143.21;96.33;73418.91;5029157;28;20209;-77
2023/12/15 08:09:24;;;;;;;38.97;20.60;;;;;;;-143.21;96.32;73424.84;5029452;28;20221;-77
2023/12/15 08:11:51;;;;;;;43.53;21.43;;;;;;;-143.21;96.54;73418.91;5028292;28;20210;-76
2023/12/15 08:14:18;;;;;;;36.03;21.77;;;;;;;-143.21;95.70;73422.88;5029577;28;20269;-76
2023/12/15 08:16:45;;;;;;;34.07;19.90;;;;;;;-143.21;95.54;73430.81;5029349;28;20950;-76
2023/12/15 08:19:11;;;;;;;38.83;21.90;;;;;;;-143.21;95.51;73428.81;5029532;28;20217;-77
2023/12/15 08:21:38;;;;;;;48.00;29.67;;;;;;;-143.21;95.79;73416.94;5029480;28;20617;-77
2023/12/15 08:24:07;;;;;;;47.97;32.33;;;;;;;-143.21;95.43;73414.94;5026897;28;20233;-78
2023/12/15 08:26:34;;;;;;;40.50;25.60;;;;;;;-143.21;95.38;73401.06;5026967;28;20692;-77
2023/12/15 08:29:01;;;;;;;32.03;20.33;;;;;;;-143.21;95.04;73412.97;5029584;28;20233;-77
2023/12/15 08:31:28;;;;;;;42.03;25.20;;;;;;;-143.21;95.22;73407.00;5029410;28;20210;-77
2023/12/15 08:33:54;;;;;;;43.20;26.10;;;;;;;-143.21;94.50;73403.03;5029526;28;20301;-78
2023/12/15 08:36:21;;;;;;;38.93;23.03;;;;;;;-143.21;94.91;73403.03;5029768;28;20211;-83
2023/12/15 08:38:48;;;;;;;33.57;21.47;;;;;;;-143.21;94.29;73401.06;5030586;28;20199;-80
2023/12/15 08:41:17;;;;;;;38.50;22.10;;;;;;;-143.21;94.79;73401.06;5030523;28;20622;-80
2023/12/15 08:43:43;;;;;;;31.87;20.60;;;;;;;-143.21;94.56;73405.03;5029529;28;20225;-79
2023/12/15 08:46:10;;;;;;;35.83;19.87;;;;;;;-143.21;94.31;73418.91;5030829;28;20203;-86
2023/12/15 08:48:37;;;;;;;31.63;19.77;;;;;;;-143.21;94.17;73430.81;5031299;28;20274;-83
2023/12/15 08:51:04;;;;;;;33.67;20.73;;;;;;;-143.21;93.62;73450.66;5031490;28;20679;-84
2023/12/15 08:53:32;;;;;;;31.43;18.73;;;;;;;-143.21;95.06;73460.56;5031555;28;20236;-85
2023/12/15 08:55:59;;;;;;;28.43;17.33;;;;;;;-143.21;95.91;73464.53;5030976;28;20745;-84
2023/12/15 08:58:28;;;;;;;32.80;19.77;;;;;;;-143.21;96.28;73450.66;5031108;28;20260;-86
2023/12/15 09:00:55;;;;;;;29.33;18.27;;;;;;;-143.21;96.40;73438.75;5030705;28;20199;-86
2023/12/15 09:03:22;;;;;;;26.43;16.83;;;;;;;-143.21;95.50;73422.88;5030961;28;20199;-86
2023/12/15 09:05:50;;;;;;;27.43;17.93;;;;;;;-143.21;95.25;73416.94;5029058;28;20684;-87
2023/12/15 09:08:17;;;;;;;33.60;19.93;;;;;;;-143.21;95.15;73410.97;5030781;28;20731;-86
2023/12/15 09:10:46;;;;;;;34.03;19.50;;;;;;;-143.21;95.20;73397.09;5030249;28;20214;-84
2023/12/15 09:13:13;;;;;;;32.27;18.20;;;;;;;-143.21;93.81;73387.16;5031134;28;20291;-83
2023/12/15 09:15:42;;;;;;;34.97;20.30;;;;;;;-143.21;93.95;73387.16;5030992;28;20213;-83
2023/12/15 09:18:09;;;;;;;32.00;19.80;;;;;;;-143.21;93.36;73373.28;5031159;28;20214;-82
2023/12/15 09:20:36;;;;;;;32.87;20.53;;;;;;;-143.21;93.05;73375.25;5030893;28;20230;-82
2023/12/15 09:23:06;;;;;;;37.83;20.90;;;;;;;-143.21;92.65;73367.34;5030762;28;20202;-83
2023/12/15 09:25:36;;;;;;;28.40;17.23;;;;;;;-143.21;92.12;73367.34;5027750;28;20203;-82
2023/12/15 09:28:03;;;;;;;31.57;19.47;;;;;;;-143.21;92.43;73375.25;5030369;28;20587;-83
2023/12/15 09:30:30;;;;;;;31.23;18.77;;;;;;;-143.21;92.37;73375.25;5030317;28;20206;-84
2023/12/15 09:32:59;;;;;;;32.63;18.43;;;;;;;-143.21;92.82;73383.19;5030441;28;20567;-84
2023/12/15 09:35:25;;;;;;;29.50;19.17;;;;;;;-143.21;92.85;73381.22;5030772;28;20199;-85
2023/12/15 09:37:52;;;;;;;35.27;19.30;;;;;;;-143.21;93.10;73375.25;5030077;28;20203;-84
2023/12/15 09:40:23;;;;;;;33.87;20.50;;;;;;;-143.21;93.14;73373.28;5030689;28;20225;-85
2023/12/15 09:42:50;;;;;;;38.90;21.53;;;;;;;-143.21;92.52;73365.34;5030380;28;20182;-87
2023/12/15 09:45:17;;;;;;;36.17;21.60;;;;;;;-143.21;92.44;73357.41;5027308;28;20209;-79
2023/12/15 09:47:47;;;;;;;36.90;21.13;;;;;;;-143.21;92.65;73355.44;5028504;28;20604;-79
2023/12/15 09:50:17;;;;;;;36.80;22.37;;;;;;;-143.21;92.57;73355.44;5031584;28;20559;-84
2023/12/15 09:52:46;;;;;;;32.33;19.93;;;;;;;-143.21;92.51;73347.50;5031638;28;20230;-83
2023/12/15 09:55:13;;;;;;;40.20;21.43;;;;;;;-143.21;92.58;73357.41;5031732;28;20202;-81
2023/12/15 09:57:40;;;;;;;37.23;23.33;;;;;;;-143.21;91.90;73365.34;5029018;28;20914;-82
2023/12/15 10:00:08;;;;;;;44.47;26.83;;;;;;;-143.21;91.91;73391.13;5030869;28;20203;-82
2023/12/15 10:02:36;;;;;;;32.43;18.30;;;;;;;-143.21;89.74;73426.84;5032411;28;20270;-81
2023/12/15 10:05:03;;;;;;;34.93;20.97;;;;;;;-143.21;91.60;73430.81;5031683;28;20211;-81
2023/12/15 10:07:31;;;;;;;33.97;20.13;;;;;;;-143.21;92.42;73409.00;5031102;28;20210;-81
2023/12/15 10:10:00;;;;;;;34.87;20.97;;;;;;;-143.21;93.29;73409.00;5031162;28;20681;-81
2023/12/15 10:12:31;;;;;;;37.07;22.63;;;;;;;-143.21;93.64;73410.97;5025580;28;20238;-81
2023/12/15 10:14:58;;;;;;;39.93;23.57;;;;;;;-143.21;94.28;73393.13;5031446;28;20199;-81
2023/12/15 10:17:25;;;;;;;41.03;25.90;;;;;;;-143.21;94.54;73385.19;5029913;28;20194;-81
2023/12/15 10:20:05;;;;;;;47.33;25.63;;;;;;;-143.21;94.54;73375.25;5028781;28;20229;-81
2023/12/15 10:22:34;;;;;;;42.00;24.40;;;;;;;-143.21;93.96;73361.38;5030322;28;20234;-81
2023/12/15 10:25:01;;;;;;;36.13;23.37;;;;;;;-143.21;93.25;73365.34;5034080;28;20209;-82
2023/12/15 10:27:27;;;;;;;43.17;23.73;;;;;;;-143.21;92.58;73375.25;5034689;28;20202;-82
2023/12/15 10:29:56;;;;;;;42.30;24.30;;;;;;;-143.21;92.71;73375.25;5034154;28;20249;-80
2023/12/15 10:32:23;;;;;;;45.07;27.67;;;;;;;-143.21;93.23;73381.22;5034762;28;20199;-80
2023/12/15 10:34:52;;;;;;;54.07;27.77;;;;;;;-143.21;94.20;73369.31;5029866;28;20199;-80
2023/12/15 10:37:19;;;;;;;42.27;24.80;;;;;;;-143.21;94.67;73367.34;5033512;28;20194;-78
2023/12/15 10:39:47;;;;;;;40.47;24.13;;;;;;;-143.21;93.70;73353.44;5033924;28;20183;-79
2023/12/15 10:42:15;;;;;;;41.23;25.30;;;;;;;-143.21;91.80;73381.22;5034174;28;20721;-79
2023/12/15 10:44:43;;;;;;;40.57;26.37;;;;;;;-143.21;92.16;73397.09;5034216;28;20206;-79
2023/12/15 10:47:11;;;;;;;43.63;26.73;;;;;;;-143.21;93.36;73397.09;5034052;28;20222;-79
2023/12/15 10:49:39;;;;;;;40.00;24.60;;;;;;;-143.21;94.39;73383.19;5034212;28;20291;-80
2023/12/15 10:52:08;;;;;;;40.60;23.50;;;;;;;-143.21;94.58;73375.25;5033517;28;20195;-80
2023/12/15 10:54:38;;;;;;;38.73;23.30;;;;;;;-143.21;94.99;73385.19;5034089;28;20739;-79
2023/12/15 10:57:11;;;;;;;33.40;21.67;;;;;;;-143.21;95.01;73377.25;5034507;28;20351;-80
2023/12/15 10:59:39;;;;;;;33.70;20.30;;;;;;;-143.21;95.02;73373.28;5034368;28;20182;-78
2023/12/15 11:02:10;;;;;;;34.30;20.13;;;;;;;-143.21;94.88;73369.31;5034142;28;20206;-81
2023/12/15 11:04:37;;;;;;;29.33;17.50;;;;;;;-143.21;94.62;73359.41;5034134;28;20191;-80
2023/12/15 11:07:04;;;;;;;24.43;16.07;;;;;;;-143.21;94.15;73351.47;5034715;28;20237;-80